Time;durP1;ratioP1;P1;durP2;ratioP2;P2;SDS_P1;SDS_P2;PMS_P1;PMS_P2;Temp;Humidity;BMP_temperature;BMP_pressure;BME280_temperature;BME280_humidity;BME280_pressure;Samples;Min_cycle;Max_cycle;Signal;HPM_P1;HPM_P2
2022/05/14 00:00:49;;;;;;;8.77;2.13;;;;;;;20.24;43.73;100695.53;4997587;28;20042;-85
2022/05/14 00:03:21;;;;;;;12.13;2.30;;;;;;;20.26;44.39;100704.19;4996215;28;20052;-87
2022/05/14 00:05:48;;;;;;;9.63;2.50;;;;;;;20.08;44.90;100692.31;4978493;28;20053;-86
2022/05/14 00:08:15;;;;;;;8.98;2.53;;;;;;;19.87;45.57;100690.03;4994745;28;20022;-88
2022/05/14 00:13:26;;;;;;;18.35;2.97;;;;;;;19.64;46.89;100699.72;4994890;28;20042;-86
2022/05/14 00:15:53;;;;;;;8.88;2.47;;;;;;;19.76;46.87;100695.28;4977215;28;20420;-87
2022/05/14 00:18:21;;;;;;;7.32;2.60;;;;;;;19.84;46.25;100693.16;4994765;28;20022;-88
2022/05/14 00:20:47;;;;;;;7.63;2.80;;;;;;;19.80;46.82;100683.03;4994608;28;20500;-87
2022/05/14 00:23:14;;;;;;;10.88;2.72;;;;;;;19.63;47.89;100693.50;4994435;28;20034;-87
2022/05/14 00:25:41;;;;;;;11.40;2.60;;;;;;;19.49;48.64;100691.94;4996397;28;20056;-88
2022/05/14 00:28:06;;;;;;;19.73;2.75;;;;;;;19.40;49.05;100687.81;4994282;28;20056;-87
2022/05/14 00:30:32;;;;;;;8.52;2.97;;;;;;;19.58;49.94;100690.66;5011750;28;20042;-87
2022/05/14 00:32:59;;;;;;;14.07;3.08;;;;;;;19.36;50.54;100697.34;5000791;28;20438;-88
2022/05/14 00:35:24;;;;;;;19.95;2.40;;;;;;;19.37;50.52;100689.09;4994170;28;20401;-88
2022/05/14 00:37:51;;;;;;;9.32;3.05;;;;;;;19.43;50.81;100688.25;4977150;28;20031;-85
2022/05/14 00:40:28;;;;;;;15.02;2.70;;;;;;;19.49;50.96;100692.75;4994334;28;20118;-86
2022/05/14 00:42:54;;;;;;;10.48;2.47;;;;;;;19.33;52.12;100682.47;4993989;28;20027;-87
2022/05/14 00:45:21;;;;;;;12.50;2.88;;;;;;;19.13;52.60;100686.31;4976994;28;20125;-87
2022/05/14 00:47:51;;;;;;;7.72;2.35;;;;;;;18.83;52.18;100681.47;4977058;28;20121;-87
2022/05/14 00:50:26;;;;;;;11.55;2.67;;;;;;;18.81;51.98;100682.72;4995464;28;20038;-85
2022/05/14 00:53:01;;;;;;;10.50;2.88;;;;;;;18.99;53.18;100686.34;5007538;28;20046;-85
2022/05/14 00:55:27;;;;;;;11.68;2.55;;;;;;;18.92;54.20;100696.31;5024959;28;20060;-84
2022/05/14 00:57:54;;;;;;;11.95;2.65;;;;;;;18.85;53.25;100690.16;5020802;28;20038;-84
2022/05/14 01:00:22;;;;;;;10.80;2.92;;;;;;;18.73;52.72;100686.44;5019130;28;20060;-84
2022/05/14 01:02:49;;;;;;;20.70;3.33;;;;;;;18.69;52.74;100690.63;5018009;28;20113;-84
2022/05/14 01:05:18;;;;;;;10.77;2.95;;;;;;;18.59;52.42;100692.91;5038079;28;20041;-85
2022/05/14 01:07:49;;;;;;;7.15;2.50;;;;;;;18.41;53.32;100687.31;5021349;28;20052;-85
2022/05/14 01:10:18;;;;;;;12.05;3.35;;;;;;;18.39;53.66;100684.88;5016990;28;20129;-85
2022/05/14 01:12:56;;;;;;;12.63;2.90;;;;;;;18.38;53.88;100695.78;4996085;28;20030;-85
2022/05/14 01:15:24;;;;;;;8.07;3.00;;;;;;;18.58;53.04;100693.94;4996400;28;20034;-87
2022/05/14 01:17:51;;;;;;;8.23;2.53;;;;;;;18.52;53.78;100689.41;4996371;28;20046;-84
2022/05/14 01:20:18;;;;;;;11.43;2.53;;;;;;;18.51;53.49;100687.75;5013600;28;20036;-86
2022/05/14 01:23:04;;;;;;;11.55;3.17;;;;;;;18.42;53.52;100681.75;4995876;28;20088;-87
2022/05/14 01:28:35;;;;;;;8.45;2.78;;;;;;;18.31;53.52;100681.56;4995715;28;20064;-91
2022/05/14 01:31:01;;;;;;;9.68;2.92;;;;;;;18.39;53.55;100682.19;4995926;28;20025;-86
2022/05/14 01:33:29;;;;;;;17.50;3.53;;;;;;;18.54;52.90;100676.59;4996082;28;20038;-87
2022/05/14 01:35:55;;;;;;;10.65;3.13;;;;;;;18.64;52.45;100674.31;4996335;28;20566;-85
2022/05/14 01:38:23;;;;;;;15.40;2.95;;;;;;;18.58;52.52;100672.47;4996102;28;20053;-86
2022/05/14 01:40:49;;;;;;;9.93;2.85;;;;;;;18.49;52.92;100668.31;4995725;28;20034;-89
2022/05/14 01:43:15;;;;;;;11.20;2.60;;;;;;;18.44;53.07;100668.13;4995485;28;20041;-87
2022/05/14 01:45:41;;;;;;;11.77;2.92;;;;;;;18.59;52.27;100674.13;4995336;28;20473;-84
2022/05/14 01:48:07;;;;;;;8.85;3.03;;;;;;;18.42;53.37;100672.88;4997611;28;20033;-85
2022/05/14 01:50:33;;;;;;;10.02;3.22;;;;;;;18.41;53.86;100672.06;4999520;28;20053;-90
2022/05/14 01:52:59;;;;;;;8.75;2.72;;;;;;;18.53;53.16;100681.13;4999442;28;20037;-89
2022/05/14 01:55:25;;;;;;;18.52;3.85;;;;;;;18.44;53.88;100681.53;4999071;28;20431;-85
2022/05/14 01:57:52;;;;;;;8.65;2.63;;;;;;;18.58;53.36;100694.75;4999345;28;20033;-89
2022/05/14 02:00:21;;;;;;;7.30;2.60;;;;;;;18.58;52.92;100691.25;4999375;28;20048;-88
2022/05/14 02:02:50;;;;;;;19.38;3.50;;;;;;;18.33;54.35;100684.84;4983495;28;20484;-88
2022/05/14 02:05:17;;;;;;;11.38;2.90;;;;;;;18.18;54.97;100682.41;4999242;28;20044;-87
2022/05/14 02:07:43;;;;;;;9.65;2.60;;;;;;;18.34;54.46;100679.28;4998938;28;20571;-88
2022/05/14 02:10:11;;;;;;;12.85;3.03;;;;;;;18.49;52.93;100676.38;5017010;28;20125;-85
2022/05/14 02:12:37;;;;;;;11.75;3.22;;;;;;;18.22;52.90;100685.50;5016909;28;20038;-88
2022/05/14 02:15:04;;;;;;;11.25;2.65;;;;;;;17.92;53.59;100675.19;4999100;28;20040;-84
2022/05/14 02:17:30;;;;;;;9.18;2.95;;;;;;;17.87;54.23;100677.66;5016638;28;20080;-87
2022/05/14 02:19:56;;;;;;;13.50;3.20;;;;;;;18.03;53.18;100674.56;4982699;28;20030;-88
2022/05/14 02:22:22;;;;;;;9.38;2.90;;;;;;;18.11;53.22;100670.84;4998963;28;20099;-86
2022/05/14 02:24:48;;;;;;;10.18;2.40;;;;;;;17.83;53.90;100679.09;4998966;28;20022;-87
2022/05/14 02:27:15;;;;;;;6.95;2.50;;;;;;;17.86;54.18;100678.72;4998716;28;20124;-87
2022/05/14 02:29:56;;;;;;;9.55;2.70;;;;;;;17.78;54.62;100670.03;4998954;28;20064;-85
2022/05/14 02:32:26;;;;;;;8.30;2.60;;;;;;;17.72;55.49;100682.41;4998863;28;20034;-86
2022/05/14 02:34:53;;;;;;;11.43;2.90;;;;;;;17.75;55.64;100681.97;4998621;28;20087;-84
2022/05/14 02:37:23;;;;;;;11.65;2.40;;;;;;;17.88;55.17;100681.16;4999062;28;20145;-83
2022/05/14 02:39:49;;;;;;;8.65;3.08;;;;;;;17.95;55.38;100684.69;5016226;28;20109;-85
2022/05/14 02:42:16;;;;;;;13.10;3.13;;;;;;;17.98;55.38;100682.41;5016566;28;20045;-90
2022/05/14 02:44:42;;;;;;;12.85;3.20;;;;;;;17.76;56.81;100685.50;5016032;28;20029;-87
2022/05/14 02:47:08;;;;;;;13.10;3.25;;;;;;;17.52;57.93;100689.53;4998963;28;20513;-88
2022/05/14 02:49:33;;;;;;;16.13;3.15;;;;;;;17.35;58.90;100686.41;4998508;28;20034;-86
2022/05/14 02:51:59;;;;;;;9.55;3.15;;;;;;;17.58;58.26;100687.94;4996146;28;20038;-87
2022/05/14 02:54:25;;;;;;;10.32;3.10;;;;;;;17.46;59.11;100687.69;5008563;28;20038;-87
2022/05/14 02:56:51;;;;;;;11.13;2.85;;;;;;;17.43;59.58;100688.09;4998432;28;20180;-84
2022/05/14 02:59:17;;;;;;;13.50;3.30;;;;;;;17.40;59.71;100693.84;5015978;28;20131;-85
2022/05/14 03:01:49;;;;;;;12.00;3.28;;;;;;;17.21;60.89;100699.94;5015978;28;20445;-85
2022/05/14 03:04:22;;;;;;;11.57;3.65;;;;;;;17.05;61.88;100691.25;4998152;28;20102;-84
2022/05/14 03:06:50;;;;;;;10.30;3.10;;;;;;;16.90;62.90;100698.59;5017005;28;20404;-86
2022/05/14 03:09:16;;;;;;;11.75;3.35;;;;;;;17.08;62.43;100694.53;5000052;28;20125;-86
2022/05/14 03:11:41;;;;;;;11.30;3.35;;;;;;;16.98;63.14;100695.75;5016179;28;20117;-86
2022/05/14 03:14:07;;;;;;;9.65;3.10;;;;;;;16.94;63.57;100691.81;4998760;28;20132;-85
2022/05/14 03:16:33;;;;;;;10.73;3.65;;;;;;;17.22;62.52;100691.72;4982211;28;20088;-85
2022/05/14 03:18:58;;;;;;;16.52;3.53;;;;;;;17.18;62.83;100687.78;5016967;28;20037;-88
2022/05/14 03:21:24;;;;;;;10.10;3.13;;;;;;;17.12;63.66;100701.16;4999679;28;20125;-83
2022/05/14 03:23:50;;;;;;;8.48;3.17;;;;;;;17.29;62.96;100697.94;5018043;28;20025;-84
2022/05/14 03:26:15;;;;;;;14.68;3.25;;;;;;;17.32;63.46;100702.06;5032012;28;20080;-87
2022/05/14 03:28:41;;;;;;;13.00;3.55;;;;;;;17.33;63.38;100707.22;5020260;28;20045;-86
2022/05/14 03:31:07;;;;;;;16.60;3.47;;;;;;;16.92;65.70;100712.63;5015801;28;20030;-84
2022/05/14 03:33:33;;;;;;;11.07;4.03;;;;;;;16.96;65.44;100707.69;5013340;28;20044;-85
2022/05/14 03:35:59;;;;;;;20.13;4.25;;;;;;;16.88;66.00;100710.53;5031920;28;20037;-84
2022/05/14 03:38:25;;;;;;;13.02;4.00;;;;;;;16.91;66.22;100705.59;5031406;28;20030;-85
2022/05/14 03:40:50;;;;;;;10.15;3.58;;;;;;;16.89;66.35;100710.34;5005475;28;20049;-85
2022/05/14 03:43:17;;;;;;;20.48;4.10;;;;;;;16.96;66.49;100708.53;4981493;28;20069;-85
2022/05/14 03:45:42;;;;;;;16.30;3.80;;;;;;;16.97;66.51;100707.47;4997247;28;20560;-87
2022/05/14 03:48:08;;;;;;;9.50;4.13;;;;;;;17.00;66.63;100709.75;4997751;28;20117;-84
2022/05/14 03:50:34;;;;;;;12.20;3.53;;;;;;;16.87;67.97;100712.38;4997623;28;20041;-89
2022/05/14 03:53:00;;;;;;;13.00;3.75;;;;;;;16.56;69.86;100717.34;4997599;28;20505;-89
2022/05/14 03:55:26;;;;;;;13.13;4.10;;;;;;;16.48;70.68;100720.13;5014866;28;20040;-83
2022/05/14 03:57:52;;;;;;;14.32;4.25;;;;;;;16.33;71.95;100719.41;4997047;28;20030;-85
2022/05/14 04:00:19;;;;;;;12.57;4.32;;;;;;;16.27;72.22;100721.00;4996779;28;20042;-85
2022/05/14 04:02:46;;;;;;;13.80;4.25;;;;;;;16.42;71.64;100724.44;4997139;28;20038;-86
2022/05/14 04:05:13;;;;;;;9.50;3.75;;;;;;;16.75;70.55;100738.06;4996636;28;20029;-84
2022/05/14 04:07:41;;;;;;;10.23;3.88;;;;;;;16.87;69.95;100731.09;4996753;28;20041;-85
2022/05/14 04:10:08;;;;;;;13.98;4.25;;;;;;;17.03;68.99;100730.78;4980147;28;20034;-84
2022/05/14 04:12:34;;;;;;;9.38;4.28;;;;;;;17.14;68.14;100733.91;5014474;28;20120;-84
2022/05/14 04:14:59;;;;;;;8.82;3.67;;;;;;;17.19;67.84;100735.00;5014365;28;20065;-86
2022/05/14 04:17:25;;;;;;;14.57;4.28;;;;;;;16.95;68.97;100733.63;4996703;28;20577;-85
2022/05/14 04:19:54;;;;;;;14.70;4.25;;;;;;;16.50;71.00;100736.84;4978642;28;20045;-84
2022/05/14 04:22:25;;;;;;;10.15;4.03;;;;;;;16.38;71.86;100741.88;4991710;28;20034;-85
2022/05/14 04:24:51;;;;;;;11.73;3.67;;;;;;;16.44;71.73;100746.44;4980410;28;20044;-86
2022/05/14 04:27:18;;;;;;;11.57;4.10;;;;;;;16.69;70.34;100740.69;4989198;28;20049;-86
2022/05/14 04:29:44;;;;;;;12.50;4.07;;;;;;;16.88;69.06;100738.13;5005204;28;20113;-86
2022/05/14 04:32:10;;;;;;;7.53;3.38;;;;;;;17.13;67.97;100737.63;4982401;28;20125;-84
2022/05/14 04:34:36;;;;;;;9.98;4.05;;;;;;;17.11;68.39;100743.19;4994075;28;20041;-85
2022/05/14 04:37:03;;;;;;;9.15;3.63;;;;;;;17.00;68.88;100746.44;5013676;28;20038;-84
2022/05/14 04:39:34;;;;;;;13.13;4.15;;;;;;;16.80;70.31;100746.34;4987749;28;20485;-84
2022/05/14 04:42:02;;;;;;;9.85;3.58;;;;;;;16.87;70.41;100743.69;4989219;28;20034;-84
2022/05/14 04:44:36;;;;;;;10.77;3.42;;;;;;;16.98;70.08;100743.94;5018733;28;20101;-86
2022/05/14 04:47:06;;;;;;;11.32;3.83;;;;;;;17.27;69.07;100750.03;4997818;28;20381;-86
2022/05/14 04:49:31;;;;;;;14.82;4.55;;;;;;;16.97;70.45;100734.25;4994826;28;20038;-87
2022/05/14 04:52:00;;;;;;;13.55;4.55;;;;;;;17.16;70.02;100735.38;4997027;28;20049;-88
2022/05/14 04:54:26;;;;;;;9.85;3.85;;;;;;;17.44;68.55;100738.78;4981386;28;20033;-86
2022/05/14 04:56:52;;;;;;;11.30;3.88;;;;;;;17.61;68.49;100746.47;4998528;28;20036;-86
2022/05/14 04:59:18;;;;;;;17.35;4.80;;;;;;;17.35;70.74;100763.28;4997544;28;20116;-86
2022/05/14 05:03:16;;;;;;;15.45;5.78;;;;;;;17.20;72.17;100757.25;4987990;28;20651;-85
2022/05/14 05:04:34;;;;;;;22.30;5.28;;;;;;;16.97;74.45;100763.72;4996639;28;20096;-86
2022/05/14 05:07:01;;;;;;;17.23;5.25;;;;;;;17.09;74.49;100755.13;4980327;28;20044;-89
2022/05/14 05:09:27;;;;;;;14.70;5.13;;;;;;;17.29;73.91;100767.59;4985268;28;20061;-93
2022/05/14 05:11:53;;;;;;;23.05;5.57;;;;;;;17.42;73.71;100770.31;5003482;28;20102;-90
2022/05/14 05:14:19;;;;;;;12.07;4.68;;;;;;;17.48;73.90;100761.47;5020772;28;20146;-85
2022/05/14 05:16:45;;;;;;;22.10;5.90;;;;;;;17.58;73.91;100758.44;5006959;28;20030;-90
2022/05/14 05:19:10;;;;;;;14.75;4.88;;;;;;;17.91;71.96;100762.03;5023788;28;20032;-86
2022/05/14 05:21:36;;;;;;;21.30;5.95;;;;;;;18.11;70.41;100762.06;5033446;28;20108;-88
2022/05/14 05:24:05;;;;;;;20.42;4.78;;;;;;;17.95;71.29;100779.38;5016848;28;20044;-85
2022/05/14 05:26:33;;;;;;;14.07;4.60;;;;;;;18.01;71.05;100773.19;5035201;28;20022;-85
2022/05/14 05:28:58;;;;;;;10.70;4.03;;;;;;;18.21;69.71;100772.38;5018858;28;20060;-86
2022/05/14 05:31:24;;;;;;;15.40;4.50;;;;;;;18.21;69.40;100775.88;5034888;28;20046;-89
2022/05/14 05:33:50;;;;;;;13.15;3.80;;;;;;;18.41;69.28;100778.56;4984740;28;20060;-88
2022/05/14 05:36:15;;;;;;;13.45;4.40;;;;;;;18.76;68.13;100774.63;5015284;28;20033;-88
2022/05/14 05:38:44;;;;;;;13.07;4.30;;;;;;;18.89;66.60;100771.94;5001974;28;20034;-87
2022/05/14 05:41:09;;;;;;;11.40;3.78;;;;;;;19.04;66.47;100774.38;5005225;28;20041;-92
2022/05/14 05:43:35;;;;;;;12.73;4.25;;;;;;;19.20;65.67;100779.28;5016433;28;20034;-85
2022/05/14 05:46:01;;;;;;;12.85;3.42;;;;;;;19.55;64.38;100782.50;4998188;28;20062;-89
2022/05/14 05:48:26;;;;;;;13.60;4.18;;;;;;;19.75;63.00;100782.41;4995484;28;20102;-88
2022/05/14 05:50:53;;;;;;;11.63;4.07;;;;;;;20.10;61.27;100787.13;4990234;28;20071;-87
2022/05/14 05:56:46;;;;;;;19.05;3.92;;;;;;;20.25;60.61;100783.31;4984282;28;20065;-91
2022/05/14 05:58:50;;;;;;;16.98;4.45;;;;;;;20.74;59.99;100793.28;4988803;28;20034;-90
2022/05/14 06:01:16;;;;;;;12.48;3.70;;;;;;;21.42;57.77;100800.22;4984857;28;20029;-88
2022/05/14 06:03:41;;;;;;;7.80;3.28;;;;;;;21.43;57.33;100793.78;5004777;28;20034;-90
2022/05/14 06:06:07;;;;;;;14.57;3.65;;;;;;;21.67;54.92;100796.59;4984549;28;20026;-89
2022/05/14 06:08:33;;;;;;;17.52;4.00;;;;;;;21.61;55.88;100792.91;5000912;28;20480;-91
2022/05/14 06:10:58;;;;;;;14.25;3.58;;;;;;;22.17;53.79;100789.06;5003484;28;20073;-91
2022/05/14 06:13:25;;;;;;;13.18;3.80;;;;;;;22.78;51.13;100792.19;5003230;28;20081;-91
2022/05/14 06:15:52;;;;;;;15.80;3.65;;;;;;;23.13;49.91;100803.78;4985555;28;20094;-89
2022/05/14 06:18:21;;;;;;;10.25;2.95;;;;;;;24.11;47.00;100803.63;5002515;28;20057;-89
2022/05/14 06:20:49;;;;;;;11.93;3.30;;;;;;;23.74;49.06;100802.38;4969541;28;20058;-91
2022/05/14 06:23:14;;;;;;;14.85;3.38;;;;;;;23.46;50.45;100803.19;4981481;28;20030;-90
2022/05/14 06:25:40;;;;;;;11.50;2.90;;;;;;;23.63;49.24;100805.97;5004514;28;20045;-91
2022/05/14 06:28:06;;;;;;;12.45;3.67;;;;;;;23.29;49.66;100812.25;4998135;28;20034;-90
2022/05/14 06:30:32;;;;;;;15.68;4.00;;;;;;;22.82;52.33;100806.88;4996957;28;20060;-89
2022/05/14 06:33:03;;;;;;;13.07;3.67;;;;;;;22.57;53.19;100806.28;4998035;28;20047;-91
2022/05/14 06:35:28;;;;;;;10.85;2.80;;;;;;;22.59;52.51;100806.84;4983706;28;20101;-90
2022/05/14 06:37:55;;;;;;;19.02;3.65;;;;;;;22.42;53.78;100814.81;5000947;28;20022;-88
2022/05/14 06:40:20;;;;;;;12.98;3.28;;;;;;;22.51;52.31;100818.81;5000982;28;20117;-92
2022/05/14 06:42:46;;;;;;;16.05;4.03;;;;;;;22.40;52.53;100816.09;5003542;28;20058;-90
2022/05/14 06:45:14;;;;;;;17.75;3.75;;;;;;;22.28;53.23;100820.63;4986713;28;20093;-90
2022/05/14 06:47:39;;;;;;;11.43;3.50;;;;;;;22.70;52.47;100811.47;5004305;28;20433;-91
2022/05/14 06:50:05;;;;;;;14.25;3.10;;;;;;;23.49;50.23;100816.25;5002980;28;20034;-88
2022/05/14 06:52:32;;;;;;;11.52;3.40;;;;;;;24.29;47.83;100821.56;5008918;28;20040;-88
2022/05/14 06:54:59;;;;;;;16.98;3.20;;;;;;;24.52;47.40;100821.41;4992278;28;20142;-89
2022/05/14 06:57:25;;;;;;;9.95;3.83;;;;;;;23.38;50.99;100813.50;4989875;28;20121;-91
2022/05/14 06:59:51;;;;;;;12.95;3.38;;;;;;;23.31;51.64;100818.22;5004373;28;20026;-90
2022/05/14 07:02:19;;;;;;;16.05;3.92;;;;;;;24.26;49.89;100821.22;5000010;28;20097;-90
2022/05/14 07:07:30;;;;;;;8.13;3.20;;;;;;;24.87;46.89;100818.44;4998534;28;20121;-91
2022/05/14 07:09:56;;;;;;;12.20;4.20;;;;;;;26.17;42.54;100818.47;4980932;28;20062;-88
2022/05/14 07:12:21;;;;;;;14.95;4.05;;;;;;;25.75;44.78;100824.78;4982701;28;20057;-89
2022/05/14 07:14:47;;;;;;;18.52;4.00;;;;;;;25.71;45.51;100819.06;4998792;28;20046;-90
2022/05/14 07:17:13;;;;;;;17.58;4.30;;;;;;;26.46;43.37;100827.16;4998892;28;20049;-90
2022/05/14 07:19:39;;;;;;;15.40;3.70;;;;;;;26.27;44.42;100830.50;4964537;28;20575;-89
2022/05/14 07:22:06;;;;;;;15.48;3.65;;;;;;;26.12;45.23;100823.81;4981695;28;20046;-90
2022/05/14 07:24:32;;;;;;;14.80;4.03;;;;;;;25.69;46.50;100821.19;4981743;28;20038;-91
2022/05/14 07:27:03;;;;;;;11.57;3.90;;;;;;;25.33;47.74;100824.50;4983044;28;20632;-91
2022/05/14 07:29:32;;;;;;;18.38;4.18;;;;;;;25.01;48.99;100814.34;4982284;28;20058;-89
2022/05/14 07:31:58;;;;;;;10.02;3.88;;;;;;;25.17;48.60;100818.88;5001120;28;20035;-92
2022/05/14 07:34:30;;;;;;;15.52;4.10;;;;;;;25.37;47.64;100820.22;4967636;28;20404;-92
2022/05/14 07:37:04;;;;;;;;;;;;;;;24.66;49.21;100824.59;4981160;28;20397;-88
2022/05/14 07:39:35;;;;;;;14.27;3.95;;;;;;;25.15;48.21;100818.34;4981121;28;20013;-90
2022/05/14 07:42:04;;;;;;;16.98;3.90;;;;;;;25.72;46.62;100820.66;4997956;28;20034;-87
2022/05/14 07:44:36;;;;;;;15.15;4.20;;;;;;;26.49;44.40;100820.38;4978744;28;20064;-88
2022/05/14 07:47:06;;;;;;;15.50;4.30;;;;;;;27.02;43.80;100814.78;4979713;28;20559;-87
2022/05/14 07:49:35;;;;;;;17.52;4.28;;;;;;;27.95;41.76;100814.91;4998210;28;20500;-89
2022/05/14 07:52:01;;;;;;;16.27;3.78;;;;;;;28.17;39.17;100818.28;4996897;28;20041;-90
2022/05/14 07:54:28;;;;;;;20.33;4.22;;;;;;;28.00;40.22;100815.75;4997263;28;20039;-88
2022/05/14 07:56:56;;;;;;;13.65;4.47;;;;;;;27.31;41.14;100817.94;4997276;28;20053;-90
2022/05/14 07:59:22;;;;;;;14.48;3.75;;;;;;;27.86;40.36;100813.81;4980762;28;20038;-88
2022/05/14 08:01:50;;;;;;;13.85;4.15;;;;;;;28.74;37.71;100815.28;4998104;28;20045;-90
2022/05/14 08:04:18;;;;;;;13.02;3.70;;;;;;;28.82;37.51;100816.63;5000557;28;20501;-91
2022/05/14 08:06:44;;;;;;;18.58;3.47;;;;;;;29.12;36.33;100811.09;4982767;28;20125;-91
2022/05/14 08:09:09;;;;;;;17.33;3.20;;;;;;;28.65;36.31;100811.44;4999022;28;20050;-87
2022/05/14 08:11:35;;;;;;;14.05;3.50;;;;;;;29.43;36.53;100811.84;5008437;28;20130;-91
2022/05/14 08:14:01;;;;;;;15.88;3.50;;;;;;;29.23;36.46;100810.78;4985645;28;20540;-91
2022/05/14 08:16:32;;;;;;;16.83;4.15;;;;;;;28.34;38.23;100816.06;4983620;28;20046;-92
2022/05/14 08:19:01;;;;;;;17.63;3.83;;;;;;;28.36;39.01;100803.00;4990193;28;20067;-93
2022/05/14 08:24:34;;;;;;;14.23;3.90;;;;;;;28.47;37.46;100809.28;4985646;28;20068;-90
2022/05/14 08:27:09;;;;;;;12.55;3.50;;;;;;;28.86;36.62;100804.91;4988296;28;20031;-91
2022/05/14 08:29:39;;;;;;;9.88;4.03;;;;;;;30.06;35.29;100810.16;4971320;28;20070;-89
2022/05/14 08:32:06;;;;;;;11.43;4.00;;;;;;;29.58;36.71;100811.78;4988576;28;20077;-90
2022/05/14 08:38:29;;;;;;;15.52;4.15;;;;;;;29.16;35.47;100817.66;5090191;23;20051;-92
2022/05/14 08:40:57;;;;;;;17.05;4.60;;;;;;;29.09;36.04;100812.50;5045217;28;20025;-92
2022/05/14 08:43:41;;;;;;;14.75;4.40;;;;;;;29.68;36.31;100814.47;5061361;28;20056;-91
2022/05/14 08:46:32;;;;;;;7.65;3.70;;;;;;;29.81;36.50;100810.28;5066300;28;20056;-92
2022/05/14 08:49:14;;;;;;;12.18;3.60;;;;;;;29.45;37.06;100813.22;5027568;28;20175;-90
2022/05/14 08:51:46;;;;;;;13.02;4.25;;;;;;;29.41;37.00;100814.03;5050204;28;20033;-92
2022/05/14 08:54:12;;;;;;;11.50;4.20;;;;;;;28.93;36.84;100813.63;5065497;28;20033;-89
2022/05/14 08:56:46;;;;;;;10.00;3.75;;;;;;;28.57;37.12;100809.28;5044632;28;20407;-90
2022/05/14 08:59:21;;;;;;;16.77;3.75;;;;;;;28.58;37.73;100806.25;5060330;28;20033;-91
2022/05/14 09:01:48;;;;;;;14.02;4.80;;;;;;;29.01;37.12;100804.84;5035793;28;20037;-90
2022/05/14 09:04:17;;;;;;;15.98;4.07;;;;;;;29.91;36.21;100805.59;5030234;28;20137;-90
2022/05/14 09:06:44;;;;;;;16.20;4.70;;;;;;;30.56;33.86;100803.50;5032254;28;20718;-91
2022/05/14 09:09:14;;;;;;;12.52;4.88;;;;;;;30.13;34.96;100806.00;5050327;28;20029;-93
2022/05/14 09:12:00;;;;;;;11.00;3.97;;;;;;;31.25;33.61;100798.38;5033674;28;20124;-92
2022/05/14 09:14:30;;;;;;;14.57;5.20;;;;;;;30.02;34.62;100811.84;5043469;28;20033;-95
2022/05/14 09:17:21;;;;;;;16.23;4.55;;;;;;;29.81;35.58;100802.91;5050532;28;20028;-88
2022/05/14 09:19:58;;;;;;;16.85;4.18;;;;;;;29.68;35.72;100800.78;5033909;28;20089;-92
2022/05/14 09:22:52;;;;;;;14.55;4.25;;;;;;;30.18;35.18;100796.94;5034065;28;20048;-91
2022/05/14 09:25:47;;;;;;;33.58;5.32;;;;;;;30.25;34.99;100795.53;5047587;28;20089;-93
2022/05/14 09:28:26;;;;;;;27.27;5.10;;;;;;;29.99;35.84;100787.78;5040732;28;20048;-87
2022/05/14 09:30:55;;;;;;;17.85;4.63;;;;;;;30.00;34.44;100795.69;5035569;28;20037;-86
2022/05/14 09:33:34;;;;;;;11.45;3.88;;;;;;;29.87;35.18;100792.78;5035789;28;20030;-85
2022/05/14 09:36:01;;;;;;;15.35;4.13;;;;;;;29.78;35.89;100792.53;5038682;28;20033;-84
2022/05/14 09:38:28;;;;;;;18.92;4.78;;;;;;;29.62;35.59;100788.25;5036868;28;20068;-86
2022/05/14 09:41:06;;;;;;;16.15;4.22;;;;;;;30.40;34.72;100788.28;5035992;28;20029;-87
2022/05/14 09:43:36;;;;;;;16.00;4.90;;;;;;;31.09;34.31;100785.19;5047345;28;20481;-85
2022/05/14 09:46:34;;;;;;;17.23;4.60;;;;;;;31.41;33.79;100787.25;5050495;28;20093;-81
2022/05/14 09:49:06;;;;;;;22.42;4.82;;;;;;;30.75;35.49;100791.53;4948587;29;20503;-84
2022/05/14 09:51:54;;;;;;;17.15;4.85;;;;;;;30.17;36.16;100792.56;4954326;29;20048;-84
2022/05/14 09:54:27;;;;;;;21.10;5.22;;;;;;;30.44;35.40;100794.84;4947458;29;20048;-88
2022/05/14 09:57:16;;;;;;;17.52;5.20;;;;;;;30.35;36.29;100796.53;4934645;29;20073;-86
2022/05/14 09:59:42;;;;;;;22.42;4.88;;;;;;;30.51;36.84;100795.31;4992156;28;20047;-88
2022/05/14 10:02:28;;;;;;;13.38;4.40;;;;;;;30.75;35.86;100785.25;5000462;28;20124;-89
2022/05/14 10:05:15;;;;;;;14.32;5.18;;;;;;;30.75;35.57;100788.00;5017381;28;20045;-91
2022/05/14 10:07:49;;;;;;;10.20;4.93;;;;;;;30.85;34.91;100785.16;5017104;28;20030;-90
2022/05/14 10:10:24;;;;;;;12.38;4.40;;;;;;;30.76;35.65;100775.91;5038449;28;20143;-87
2022/05/14 10:13:04;;;;;;;16.80;4.68;;;;;;;30.14;36.28;100774.81;5045457;28;20033;-89
2022/05/14 10:15:50;;;;;;;14.93;4.70;;;;;;;30.82;35.55;100763.00;5029672;28;20041;-88
2022/05/14 10:18:53;;;;;;;17.02;4.68;;;;;;;30.89;34.81;100768.97;5042851;28;20068;-92
2022/05/14 10:21:37;;;;;;;20.30;5.00;;;;;;;30.57;35.51;100773.09;5054023;28;20037;-91
2022/05/14 10:27:37;;;;;;;13.55;4.85;;;;;;;30.37;35.29;100775.19;5031428;28;20056;-90
2022/05/14 10:30:22;;;;;;;17.48;4.32;;;;;;;30.63;34.96;100771.13;5011156;28;20037;-90
2022/05/14 10:32:59;;;;;;;14.98;4.30;;;;;;;30.62;34.85;100775.00;5048309;28;20048;-90
2022/05/14 10:36:01;;;;;;;11.00;4.47;;;;;;;30.88;34.42;100767.31;5057324;28;20495;-94
2022/05/14 10:38:34;;;;;;;12.93;5.30;;;;;;;29.35;37.95;100757.81;5030248;28;20045;-91
2022/05/14 10:41:07;;;;;;;13.55;4.35;;;;;;;29.38;39.24;100754.50;5051863;28;20487;-92
2022/05/14 10:44:08;;;;;;;12.02;5.88;;;;;;;29.64;37.65;100754.09;5048812;28;20037;-91
2022/05/14 10:46:40;;;;;;;18.38;5.30;;;;;;;29.69;37.68;100751.34;5044317;28;20028;-90
2022/05/14 10:49:37;;;;;;;11.57;4.35;;;;;;;29.69;37.37;100762.28;5049524;28;20044;-89
2022/05/14 10:52:11;;;;;;;12.85;4.95;;;;;;;30.05;36.17;100754.66;4982950;28;20145;-92
2022/05/14 10:54:57;;;;;;;16.83;4.75;;;;;;;29.72;37.60;100755.41;5021045;23;20040;-89
2022/05/14 10:57:35;;;;;;;17.60;4.55;;;;;;;29.63;37.54;100748.94;5072411;28;20043;-90
2022/05/14 11:00:30;;;;;;;11.45;4.28;;;;;;;30.19;37.57;100739.22;5053653;28;20029;-88
2022/05/14 11:03:02;;;;;;;13.27;4.80;;;;;;;30.63;36.00;100738.28;5061273;28;20041;-89
2022/05/14 11:06:02;;;;;;;12.80;4.63;;;;;;;31.32;34.12;100745.19;5067463;28;20037;-89
2022/05/14 11:08:37;;;;;;;15.48;4.35;;;;;;;31.50;34.03;100739.75;5018368;28;20056;-88
2022/05/14 11:11:31;;;;;;;13.40;4.45;;;;;;;30.97;34.57;100738.22;5065728;28;20029;-90
2022/05/14 11:13:59;;;;;;;12.07;4.35;;;;;;;30.42;34.62;100745.91;5058418;28;20029;-84
2022/05/14 11:16:36;;;;;;;18.75;5.30;;;;;;;29.20;37.26;100737.63;5067571;28;20044;-87
2022/05/14 11:19:04;;;;;;;8.82;4.65;;;;;;;28.71;39.07;100728.53;5060005;28;20069;-86
2022/05/14 11:21:42;;;;;;;15.73;4.03;;;;;;;29.35;37.56;100735.97;5061971;28;20061;-86
2022/05/14 11:24:13;;;;;;;14.57;4.47;;;;;;;30.09;36.39;100728.41;5041825;28;20041;-88
2022/05/14 11:26:48;;;;;;;16.25;5.43;;;;;;;29.60;36.22;100727.63;5046274;28;20048;-89
2022/05/14 11:29:19;;;;;;;9.52;4.68;;;;;;;29.41;37.00;100715.72;5067512;28;20067;-91
2022/05/14 11:32:01;;;;;;;13.55;4.72;;;;;;;29.45;36.91;100722.25;5049216;28;20041;-83
2022/05/14 11:34:27;;;;;;;13.15;5.07;;;;;;;29.12;37.34;100719.13;5063802;28;20540;-83
2022/05/14 11:36:56;;;;;;;10.68;3.97;;;;;;;29.30;37.20;100722.34;5070068;28;20021;-82
2022/05/14 11:39:24;;;;;;;18.30;4.38;;;;;;;28.53;37.59;100720.91;5079276;28;20084;-85
2022/05/14 11:42:05;;;;;;;15.15;4.65;;;;;;;28.25;38.28;100708.69;5029944;28;20037;-85
2022/05/14 11:44:40;;;;;;;10.80;4.30;;;;;;;28.03;39.00;100711.66;5030944;28;20075;-82
2022/05/14 11:47:31;;;;;;;17.02;4.78;;;;;;;28.02;39.36;100707.31;5039466;28;20479;-84
2022/05/14 11:50:00;;;;;;;15.73;3.90;;;;;;;28.26;38.61;100701.31;5035567;28;20053;-83
2022/05/14 11:52:44;;;;;;;15.82;4.15;;;;;;;28.20;39.01;100695.88;5033597;28;20362;-85
2022/05/14 11:55:20;;;;;;;10.75;3.67;;;;;;;28.14;38.70;100691.50;5036801;28;20063;-84